sensor_id;sensor_type;location;lat;lon;timestamp;P1;durP1;ratioP1;P2;durP2;ratioP2
16624;SDS011;8426;48.496;9.098;2023-08-24T07:16:33;11.93;;;4.90;;
16624;SDS011;8426;48.496;9.098;2023-08-24T07:21:36;8.20;;;4.35;;
16624;SDS011;8426;48.496;9.098;2023-08-24T07:26:40;12.73;;;4.50;;
16624;SDS011;8426;48.496;9.098;2023-08-24T07:31:45;13.13;;;4.90;;
16624;SDS011;8426;48.496;9.098;2023-08-24T07:36:50;9.00;;;4.35;;
16624;SDS011;8426;48.496;9.098;2023-08-24T07:41:54;13.07;;;5.00;;
16624;SDS011;8426;48.496;9.098;2023-08-24T07:47:04;7.13;;;4.93;;
16624;SDS011;8426;48.496;9.098;2023-08-24T07:52:10;11.38;;;5.25;;
16624;SDS011;8426;48.496;9.098;2023-08-24T07:57:20;10.15;;;4.90;;
16624;SDS011;8426;48.496;9.098;2023-08-24T08:02:27;9.00;;;4.90;;
16624;SDS011;8426;48.496;9.098;2023-08-24T08:07:32;13.45;;;5.10;;
16624;SDS011;8426;48.496;9.098;2023-08-24T08:12:36;9.68;;;4.10;;
16624;SDS011;8426;48.496;9.098;2023-08-24T08:17:41;5.88;;;3.50;;
16624;SDS011;8426;48.496;9.098;2023-08-24T08:22:51;7.95;;;3.97;;
16624;SDS011;8426;48.496;9.098;2023-08-24T08:27:54;13.30;;;3.40;;
16624;SDS011;8426;48.496;9.098;2023-08-24T08:33:00;3.95;;;3.28;;
16624;SDS011;8426;48.496;9.098;2023-08-24T08:38:05;18.15;;;3.33;;
16624;SDS011;8426;48.496;9.098;2023-08-24T08:43:09;7.07;;;4.35;;
16624;SDS011;8426;48.496;9.098;2023-08-24T08:48:17;8.63;;;3.13;;
16624;SDS011;8426;48.496;9.098;2023-08-24T08:53:23;5.40;;;3.38;;
16624;SDS011;8426;48.496;9.098;2023-08-24T08:58:30;10.52;;;3.80;;
16624;SDS011;8426;48.496;9.098;2023-08-24T09:03:37;6.40;;;3.58;;
16624;SDS011;8426;48.496;9.098;2023-08-24T09:08:45;7.00;;;3.60;;
16624;SDS011;8426;48.496;9.098;2023-08-24T09:13:54;8.50;;;3.20;;
16624;SDS011;8426;48.496;9.098;2023-08-24T09:18:59;10.77;;;3.33;;
16624;SDS011;8426;48.496;9.098;2023-08-24T09:24:08;8.52;;;2.97;;
16624;SDS011;8426;48.496;9.098;2023-08-24T09:29:13;9.02;;;2.92;;
16624;SDS011;8426;48.496;9.098;2023-08-24T09:34:24;6.63;;;3.22;;
16624;SDS011;8426;48.496;9.098;2023-08-24T09:39:31;8.90;;;3.55;;
16624;SDS011;8426;48.496;9.098;2023-08-24T09:44:35;6.50;;;3.40;;
16624;SDS011;8426;48.496;9.098;2023-08-24T09:49:40;6.97;;;3.20;;
16624;SDS011;8426;48.496;9.098;2023-08-24T09:54:45;12.90;;;3.60;;
16624;SDS011;8426;48.496;9.098;2023-08-24T09:59:51;6.55;;;3.25;;
16624;SDS011;8426;48.496;9.098;2023-08-24T10:04:58;6.10;;;3.40;;
16624;SDS011;8426;48.496;9.098;2023-08-24T10:10:07;15.20;;;3.90;;
16624;SDS011;8426;48.496;9.098;2023-08-24T10:15:15;12.80;;;4.25;;
16624;SDS011;8426;48.496;9.098;2023-08-24T10:20:27;12.00;;;4.30;;
16624;SDS011;8426;48.496;9.098;2023-08-24T10:25:39;18.60;;;3.70;;
16624;SDS011;8426;48.496;9.098;2023-08-24T10:30:46;9.50;;;4.18;;
16624;SDS011;8426;48.496;9.098;2023-08-24T10:35:54;9.68;;;4.70;;
16624;SDS011;8426;48.496;9.098;2023-08-24T10:41:01;7.45;;;4.10;;
16624;SDS011;8426;48.496;9.098;2023-08-24T10:46:13;17.38;;;4.40;;
16624;SDS011;8426;48.496;9.098;2023-08-24T10:51:21;5.97;;;4.43;;
16624;SDS011;8426;48.496;9.098;2023-08-24T10:56:34;9.98;;;5.00;;
16624;SDS011;8426;48.496;9.098;2023-08-24T11:01:54;9.77;;;3.97;;
16624;SDS011;8426;48.496;9.098;2023-08-24T11:07:01;14.57;;;4.40;;
16624;SDS011;8426;48.496;9.098;2023-08-24T11:12:04;12.23;;;4.43;;
16624;SDS011;8426;48.496;9.098;2023-08-24T11:17:17;10.20;;;4.20;;
16624;SDS011;8426;48.496;9.098;2023-08-24T11:22:28;13.07;;;4.03;;
16624;SDS011;8426;48.496;9.098;2023-08-24T11:27:42;8.45;;;4.45;;
16624;SDS011;8426;48.496;9.098;2023-08-24T11:32:51;7.03;;;4.47;;
16624;SDS011;8426;48.496;9.098;2023-08-24T11:37:58;13.52;;;5.32;;
16624;SDS011;8426;48.496;9.098;2023-08-24T11:43:03;9.45;;;4.75;;
16624;SDS011;8426;48.496;9.098;2023-08-24T11:48:07;13.50;;;5.03;;
16624;SDS011;8426;48.496;9.098;2023-08-24T12:04:07;15.90;;;4.45;;
16624;SDS011;8426;48.496;9.098;2023-08-24T12:09:19;11.88;;;4.22;;
16624;SDS011;8426;48.496;9.098;2023-08-24T12:15:02;9.68;;;4.32;;
16624;SDS011;8426;48.496;9.098;2023-08-24T12:20:07;12.63;;;4.10;;
16624;SDS011;8426;48.496;9.098;2023-08-24T12:26:07;15.70;;;4.65;;
16624;SDS011;8426;48.496;9.098;2023-08-24T12:31:41;10.68;;;4.28;;
16624;SDS011;8426;48.496;9.098;2023-08-24T12:37:07;13.48;;;4.40;;
16624;SDS011;8426;48.496;9.098;2023-08-24T12:48:08;7.60;;;4.32;;
16624;SDS011;8426;48.496;9.098;2023-08-24T12:53:51;7.72;;;4.32;;
16624;SDS011;8426;48.496;9.098;2023-08-24T12:59:03;10.02;;;4.72;;
16624;SDS011;8426;48.496;9.098;2023-08-24T13:04:11;18.08;;;4.70;;
16624;SDS011;8426;48.496;9.098;2023-08-24T13:09:16;12.38;;;4.45;;
16624;SDS011;8426;48.496;9.098;2023-08-24T13:14:34;17.13;;;4.67;;
16624;SDS011;8426;48.496;9.098;2023-08-24T13:19:39;14.27;;;4.22;;
16624;SDS011;8426;48.496;9.098;2023-08-24T13:24:45;14.27;;;3.90;;
16624;SDS011;8426;48.496;9.098;2023-08-24T13:29:49;16.10;;;4.63;;
16624;SDS011;8426;48.496;9.098;2023-08-24T13:34:59;23.30;;;4.60;;
16624;SDS011;8426;48.496;9.098;2023-08-24T13:40:04;8.77;;;4.45;;
16624;SDS011;8426;48.496;9.098;2023-08-24T13:45:11;7.47;;;3.67;;
16624;SDS011;8426;48.496;9.098;2023-08-24T13:50:18;14.52;;;4.22;;
16624;SDS011;8426;48.496;9.098;2023-08-24T13:55:23;13.35;;;4.07;;
16624;SDS011;8426;48.496;9.098;2023-08-24T14:00:28;9.68;;;4.53;;
16624;SDS011;8426;48.496;9.098;2023-08-24T14:05:34;11.25;;;3.70;;
16624;SDS011;8426;48.496;9.098;2023-08-24T14:10:43;12.77;;;4.00;;
16624;SDS011;8426;48.496;9.098;2023-08-24T14:15:47;11.43;;;4.32;;
16624;SDS011;8426;48.496;9.098;2023-08-24T14:20:53;12.30;;;3.95;;
16624;SDS011;8426;48.496;9.098;2023-08-24T14:25:56;13.77;;;4.20;;
16624;SDS011;8426;48.496;9.098;2023-08-24T14:31:00;15.48;;;4.25;;
16624;SDS011;8426;48.496;9.098;2023-08-24T14:36:07;12.40;;;3.95;;
16624;SDS011;8426;48.496;9.098;2023-08-24T14:41:11;17.35;;;4.03;;
16624;SDS011;8426;48.496;9.098;2023-08-24T14:46:17;12.40;;;3.88;;
16624;SDS011;8426;48.496;9.098;2023-08-24T14:51:22;16.30;;;4.30;;
16624;SDS011;8426;48.496;9.098;2023-08-24T14:56:26;9.55;;;4.03;;
16624;SDS011;8426;48.496;9.098;2023-08-24T15:01:31;19.05;;;4.63;;
16624;SDS011;8426;48.496;9.098;2023-08-24T15:06:36;11.32;;;4.18;;
16624;SDS011;8426;48.496;9.098;2023-08-24T15:11:41;23.27;;;3.95;;
16624;SDS011;8426;48.496;9.098;2023-08-24T15:16:45;13.30;;;4.68;;
16624;SDS011;8426;48.496;9.098;2023-08-24T15:27:22;11.60;;;5.38;;
16624;SDS011;8426;48.496;9.098;2023-08-24T15:32:28;15.43;;;5.13;;
16624;SDS011;8426;48.496;9.098;2023-08-24T15:37:35;14.18;;;4.70;;
16624;SDS011;8426;48.496;9.098;2023-08-24T15:42:41;10.82;;;4.75;;
16624;SDS011;8426;48.496;9.098;2023-08-24T15:47:47;13.73;;;4.75;;
16624;SDS011;8426;48.496;9.098;2023-08-24T15:52:52;6.47;;;3.95;;
16624;SDS011;8426;48.496;9.098;2023-08-24T15:58:06;6.63;;;4.43;;
16624;SDS011;8426;48.496;9.098;2023-08-24T16:03:10;4.95;;;3.53;;
16624;SDS011;8426;48.496;9.098;2023-08-24T16:08:15;6.25;;;3.58;;
16624;SDS011;8426;48.496;9.098;2023-08-24T16:13:19;8.75;;;3.72;;
16624;SDS011;8426;48.496;9.098;2023-08-24T16:18:27;5.68;;;3.13;;
16624;SDS011;8426;48.496;9.098;2023-08-24T16:23:38;6.63;;;2.85;;
16624;SDS011;8426;48.496;9.098;2023-08-24T16:28:42;9.85;;;3.03;;
16624;SDS011;8426;48.496;9.098;2023-08-24T16:33:47;7.13;;;2.90;;
16624;SDS011;8426;48.496;9.098;2023-08-24T16:38:52;4.30;;;2.63;;
16624;SDS011;8426;48.496;9.098;2023-08-24T16:43:55;4.28;;;2.80;;
16624;SDS011;8426;48.496;9.098;2023-08-24T16:48:59;8.05;;;2.58;;
16624;SDS011;8426;48.496;9.098;2023-08-24T16:54:05;4.45;;;2.58;;
16624;SDS011;8426;48.496;9.098;2023-08-24T16:59:08;12.10;;;3.60;;
16624;SDS011;8426;48.496;9.098;2023-08-24T17:04:11;6.57;;;3.10;;
16624;SDS011;8426;48.496;9.098;2023-08-24T17:09:20;5.85;;;3.42;;
16624;SDS011;8426;48.496;9.098;2023-08-24T17:14:30;10.25;;;3.30;;
16624;SDS011;8426;48.496;9.098;2023-08-24T17:19:34;17.35;;;4.72;;
16624;SDS011;8426;48.496;9.098;2023-08-24T17:24:39;6.13;;;3.50;;
16624;SDS011;8426;48.496;9.098;2023-08-24T17:29:42;7.32;;;3.65;;
16624;SDS011;8426;48.496;9.098;2023-08-24T17:34:46;9.30;;;4.05;;
16624;SDS011;8426;48.496;9.098;2023-08-24T17:39:51;9.10;;;2.95;;
16624;SDS011;8426;48.496;9.098;2023-08-24T17:44:54;6.38;;;3.28;;
16624;SDS011;8426;48.496;9.098;2023-08-24T17:49:59;9.40;;;3.60;;
16624;SDS011;8426;48.496;9.098;2023-08-24T17:55:06;9.45;;;3.58;;
16624;SDS011;8426;48.496;9.098;2023-08-24T18:00:10;5.13;;;3.13;;
16624;SDS011;8426;48.496;9.098;2023-08-24T18:05:18;6.38;;;2.92;;
16624;SDS011;8426;48.496;9.098;2023-08-24T18:10:28;9.52;;;3.70;;
